Time;durP1;ratioP1;P1;durP2;ratioP2;P2;SDS_P1;SDS_P2;PMS_P1;PMS_P2;Temp;Humidity;BMP_temperature;BMP_pressure;BME280_temperature;BME280_humidity;BME280_pressure;Samples;Min_cycle;Max_cycle;Signal;HPM_P1;HPM_P2
2023/09/08 00:02:12;;;;;;;10.02;5.38;;;;;;;;;;5033319;28;20021;-74
2023/09/08 00:04:38;;;;;;;7.22;4.88;;;;;;;;;;5031267;28;20371;-74
2023/09/08 00:07:04;;;;;;;8.32;6.18;;;;;;;;;;5032162;28;20120;-74
2023/09/08 00:09:29;;;;;;;11.02;5.90;;;;;;;;;;5013761;28;20033;-74
2023/09/08 00:11:55;;;;;;;8.30;5.38;;;;;;;;;;5014371;28;20025;-74
2023/09/08 00:14:21;;;;;;;8.48;5.65;;;;;;;;;;5032442;28;20029;-74
2023/09/08 00:16:46;;;;;;;10.10;5.22;;;;;;;;;;5015392;28;20044;-74
2023/09/08 00:19:13;;;;;;;8.00;4.90;;;;;;;;;;5037264;28;20485;-74
2023/09/08 00:21:39;;;;;;;11.18;5.85;;;;;;;;;;5023713;28;20041;-75
2023/09/08 00:24:05;;;;;;;9.75;5.53;;;;;;;;;;5037649;28;20109;-74
2023/09/08 00:26:33;;;;;;;9.38;5.78;;;;;;;;;;5041365;28;20026;-73
2023/09/08 00:28:58;;;;;;;8.98;5.30;;;;;;;;;;4998565;28;20044;-75
2023/09/08 00:31:24;;;;;;;10.13;5.35;;;;;;;;;;5033738;28;20025;-75
2023/09/08 00:33:49;;;;;;;8.93;5.20;;;;;;;;;;5014282;28;20025;-74
2023/09/08 00:36:15;;;;;;;12.15;5.82;;;;;;;;;;5013460;28;20033;-75
2023/09/08 00:38:41;;;;;;;8.82;5.95;;;;;;;;;;5030709;28;20021;-75
2023/09/08 00:41:07;;;;;;;11.35;5.63;;;;;;;;;;5030265;28;20079;-75
2023/09/08 00:43:33;;;;;;;11.93;5.85;;;;;;;;;;5012215;28;20022;-75
2023/09/08 00:46:00;;;;;;;7.85;5.47;;;;;;;;;;5012204;28;20041;-75
2023/09/08 00:48:26;;;;;;;7.78;5.68;;;;;;;;;;5029884;28;20033;-74
2023/09/08 00:50:52;;;;;;;9.45;5.35;;;;;;;;;;5030041;28;20033;-74
2023/09/08 00:53:18;;;;;;;8.55;5.78;;;;;;;;;;5030079;28;20045;-74
2023/09/08 00:55:44;;;;;;;17.02;5.88;;;;;;;;;;5011985;28;20021;-74
2023/09/08 00:58:11;;;;;;;11.45;6.45;;;;;;;;;;5012260;28;20055;-75
2023/09/08 01:00:37;;;;;;;9.13;6.10;;;;;;;;;;5029712;28;20076;-75
2023/09/08 01:03:03;;;;;;;9.55;6.55;;;;;;;;;;5029876;28;20025;-75
2023/09/08 01:05:29;;;;;;;11.00;6.57;;;;;;;;;;5028272;28;20112;-74
2023/09/08 01:07:55;;;;;;;9.05;6.25;;;;;;;;;;5011747;28;20112;-75
2023/09/08 01:10:21;;;;;;;10.15;6.18;;;;;;;;;;4995207;28;20098;-74
2023/09/08 01:12:47;;;;;;;9.90;6.07;;;;;;;;;;5029403;28;20030;-75
2023/09/08 01:15:13;;;;;;;11.93;7.03;;;;;;;;;;5028133;28;20025;-75
2023/09/08 01:17:39;;;;;;;11.43;6.20;;;;;;;;;;5027681;28;20068;-75
2023/09/08 01:20:13;;;;;;;8.75;5.88;;;;;;;;;;5012075;28;20033;-75
2023/09/08 01:23:15;;;;;;;12.93;5.80;;;;;;;;;;5029582;28;20071;-75
2023/09/08 01:25:49;;;;;;;11.57;6.22;;;;;;;;;;5029553;28;20061;-75
2023/09/08 01:28:15;;;;;;;9.23;5.93;;;;;;;;;;5011832;28;20025;-75
2023/09/08 01:30:42;;;;;;;8.45;6.20;;;;;;;;;;5029412;28;20104;-75
2023/09/08 01:33:09;;;;;;;10.38;6.35;;;;;;;;;;5029908;28;20025;-75
2023/09/08 01:35:35;;;;;;;10.02;6.03;;;;;;;;;;5028020;28;20048;-74
2023/09/08 01:38:01;;;;;;;8.90;6.45;;;;;;;;;;5029785;28;20079;-75
2023/09/08 01:40:26;;;;;;;11.95;6.20;;;;;;;;;;4995631;28;20040;-75
2023/09/08 01:42:52;;;;;;;9.90;6.95;;;;;;;;;;5029768;28;20017;-75
2023/09/08 01:45:18;;;;;;;18.48;13.85;;;;;;;;;;5011725;28;20041;-76
2023/09/08 01:47:43;;;;;;;12.63;7.32;;;;;;;;;;5030679;28;20091;-75
2023/09/08 01:50:09;;;;;;;12.32;6.97;;;;;;;;;;5033235;28;20064;-75
2023/09/08 01:52:35;;;;;;;15.40;6.40;;;;;;;;;;5032981;28;20398;-76
2023/09/08 01:55:00;;;;;;;9.05;6.70;;;;;;;;;;5033154;28;20076;-76
2023/09/08 01:57:26;;;;;;;9.73;6.75;;;;;;;;;;5015018;28;20046;-76
2023/09/08 01:59:51;;;;;;;11.18;7.22;;;;;;;;;;5028253;28;20137;-76
2023/09/08 02:02:17;;;;;;;11.43;7.40;;;;;;;;;;5034981;28;20028;-75
2023/09/08 02:04:43;;;;;;;10.50;6.60;;;;;;;;;;5052577;28;20433;-74
2023/09/08 02:07:08;;;;;;;9.55;6.38;;;;;;;;;;5052928;28;20087;-75
2023/09/08 02:09:36;;;;;;;12.82;7.05;;;;;;;;;;5027859;28;20044;-75
2023/09/08 02:12:03;;;;;;;14.93;7.40;;;;;;;;;;5051042;28;20040;-74
2023/09/08 02:14:29;;;;;;;10.13;6.53;;;;;;;;;;5052417;28;20760;-75
2023/09/08 02:16:55;;;;;;;10.82;7.07;;;;;;;;;;5034797;28;20373;-75
2023/09/08 02:19:21;;;;;;;14.43;7.18;;;;;;;;;;5052963;28;20036;-75
2023/09/08 02:21:46;;;;;;;10.85;7.40;;;;;;;;;;5052806;28;20136;-75
2023/09/08 02:24:12;;;;;;;11.88;6.43;;;;;;;;;;5034057;28;20494;-75
2023/09/08 02:26:39;;;;;;;13.45;7.10;;;;;;;;;;5052156;28;20025;-75
2023/09/08 02:29:04;;;;;;;12.70;6.97;;;;;;;;;;5052354;28;20025;-75
2023/09/08 02:31:30;;;;;;;12.32;7.10;;;;;;;;;;5052164;28;20112;-75
2023/09/08 02:33:56;;;;;;;9.43;6.60;;;;;;;;;;5052326;28;20135;-75
2023/09/08 02:36:25;;;;;;;10.73;6.93;;;;;;;;;;5052389;28;20029;-75
2023/09/08 02:38:54;;;;;;;9.18;6.60;;;;;;;;;;5034063;28;20075;-76
2023/09/08 02:41:20;;;;;;;15.20;7.88;;;;;;;;;;5052168;28;20036;-76
2023/09/08 02:43:46;;;;;;;12.20;7.72;;;;;;;;;;5033804;28;20025;-75
2023/09/08 02:46:11;;;;;;;10.52;6.93;;;;;;;;;;5052156;28;20021;-75
2023/09/08 02:48:38;;;;;;;11.75;7.13;;;;;;;;;;5051769;28;20465;-76
2023/09/08 02:51:03;;;;;;;9.18;6.18;;;;;;;;;;5052066;28;21892;-75
2023/09/08 02:53:29;;;;;;;11.15;7.07;;;;;;;;;;5034001;28;20134;-74
2023/09/08 02:55:55;;;;;;;12.75;7.43;;;;;;;;;;5034147;28;20443;-75
2023/09/08 02:58:20;;;;;;;12.68;7.43;;;;;;;;;;5016837;28;20171;-75
2023/09/08 03:00:46;;;;;;;11.80;7.05;;;;;;;;;;5013458;28;20056;-75
2023/09/08 03:03:11;;;;;;;11.45;7.03;;;;;;;;;;5032267;28;20039;-74
2023/09/08 03:05:37;;;;;;;13.93;7.22;;;;;;;;;;5032009;28;20037;-74
2023/09/08 03:08:03;;;;;;;14.00;7.72;;;;;;;;;;5014210;28;20053;-74
2023/09/08 03:10:28;;;;;;;11.75;7.30;;;;;;;;;;5019883;28;20048;-74
2023/09/08 03:12:54;;;;;;;12.25;7.38;;;;;;;;;;5011583;28;20025;-75
2023/09/08 03:15:21;;;;;;;13.32;7.38;;;;;;;;;;4994262;28;20105;-74
2023/09/08 03:17:46;;;;;;;16.15;7.85;;;;;;;;;;5011996;28;20122;-75
2023/09/08 03:20:13;;;;;;;10.18;6.82;;;;;;;;;;5011758;28;20065;-74
2023/09/08 03:22:39;;;;;;;12.15;7.78;;;;;;;;;;5011714;28;20025;-75
2023/09/08 03:25:05;;;;;;;11.18;7.00;;;;;;;;;;5012171;28;20363;-75
2023/09/08 03:27:31;;;;;;;14.27;8.45;;;;;;;;;;4993834;28;20092;-75
2023/09/08 03:29:56;;;;;;;13.15;7.57;;;;;;;;;;5011982;28;20030;-75
2023/09/08 03:32:22;;;;;;;15.15;7.97;;;;;;;;;;5011906;28;20030;-74
2023/09/08 03:34:47;;;;;;;14.43;7.50;;;;;;;;;;5010454;28;20818;-74
2023/09/08 03:37:15;;;;;;;12.02;7.65;;;;;;;;;;5011292;28;20033;-74
2023/09/08 03:39:40;;;;;;;11.32;7.43;;;;;;;;;;4994041;28;20029;-76
2023/09/08 03:42:06;;;;;;;9.07;7.32;;;;;;;;;;5011177;28;20084;-75
2023/09/08 03:44:31;;;;;;;13.55;7.60;;;;;;;;;;4994711;28;20034;-75
2023/09/08 03:46:57;;;;;;;15.02;7.68;;;;;;;;;;4994113;28;20075;-74
2023/09/08 03:49:22;;;;;;;14.43;7.45;;;;;;;;;;5011879;28;20679;-74
2023/09/08 03:51:48;;;;;;;9.68;7.53;;;;;;;;;;5011455;28;20033;-75
2023/09/08 03:54:13;;;;;;;12.15;7.82;;;;;;;;;;4993661;28;20033;-75
2023/09/08 03:56:39;;;;;;;12.93;8.20;;;;;;;;;;5014182;28;20132;-75
2023/09/08 03:59:04;;;;;;;12.93;8.15;;;;;;;;;;5031231;28;20033;-74
2023/09/08 04:01:30;;;;;;;11.63;7.85;;;;;;;;;;5013294;28;20113;-74
2023/09/08 04:03:55;;;;;;;13.75;9.18;;;;;;;;;;5030490;28;20037;-75
2023/09/08 04:06:21;;;;;;;11.80;7.35;;;;;;;;;;5028929;28;20099;-76
2023/09/08 04:08:47;;;;;;;18.38;8.18;;;;;;;;;;5011897;28;20029;-75
2023/09/08 04:11:12;;;;;;;12.90;8.50;;;;;;;;;;5011111;28;20021;-74
2023/09/08 04:13:38;;;;;;;12.70;8.15;;;;;;;;;;5011643;28;20485;-75
2023/09/08 04:16:03;;;;;;;14.68;9.30;;;;;;;;;;5030391;28;20132;-75
2023/09/08 04:18:30;;;;;;;28.35;10.20;;;;;;;;;;5030677;28;20536;-75
2023/09/08 04:20:55;;;;;;;27.98;10.73;;;;;;;;;;5012512;28;20029;-75
2023/09/08 04:23:21;;;;;;;22.95;11.35;;;;;;;;;;5014159;28;20060;-75
2023/09/08 04:25:46;;;;;;;15.35;8.90;;;;;;;;;;5015157;28;20044;-75
2023/09/08 04:28:12;;;;;;;18.92;8.25;;;;;;;;;;5015894;28;20049;-75
2023/09/08 04:30:37;;;;;;;19.35;8.63;;;;;;;;;;5024586;28;20025;-75
2023/09/08 04:33:03;;;;;;;16.10;9.20;;;;;;;;;;5049358;28;20681;-76
2023/09/08 04:35:28;;;;;;;15.52;7.95;;;;;;;;;;5031254;28;20030;-77
2023/09/08 04:37:54;;;;;;;17.25;8.32;;;;;;;;;;5041921;28;20057;-74
2023/09/08 04:40:19;;;;;;;14.23;8.60;;;;;;;;;;5032111;28;20035;-77
2023/09/08 04:42:45;;;;;;;12.65;9.10;;;;;;;;;;5047224;28;20059;-73
2023/09/08 04:45:10;;;;;;;14.57;8.98;;;;;;;;;;5031959;28;20343;-76
2023/09/08 04:47:37;;;;;;;16.83;8.68;;;;;;;;;;5012406;28;20366;-75
2023/09/08 04:50:03;;;;;;;23.10;8.63;;;;;;;;;;5012322;28;20064;-75
2023/09/08 04:52:29;;;;;;;18.52;10.52;;;;;;;;;;5024624;28;20067;-75
2023/09/08 04:54:54;;;;;;;16.77;9.88;;;;;;;;;;5031651;28;20048;-77
2023/09/08 04:57:20;;;;;;;21.20;10.63;;;;;;;;;;5049948;28;20056;-73
2023/09/08 04:59:45;;;;;;;20.50;10.75;;;;;;;;;;5049199;28;20109;-75
2023/09/08 05:02:11;;;;;;;20.23;9.60;;;;;;;;;;5016602;28;20036;-76
2023/09/08 05:04:37;;;;;;;23.98;11.02;;;;;;;;;;5015495;28;20444;-75
2023/09/08 05:07:02;;;;;;;18.38;10.75;;;;;;;;;;5030498;28;20472;-75
2023/09/08 05:09:28;;;;;;;20.45;9.85;;;;;;;;;;5028368;28;20044;-74
2023/09/08 05:11:53;;;;;;;14.90;8.93;;;;;;;;;;5034353;28;20026;-74
2023/09/08 05:14:19;;;;;;;14.65;9.77;;;;;;;;;;5044965;28;20044;-74
2023/09/08 05:16:55;;;;;;;16.92;8.90;;;;;;;;;;5047458;28;20028;-74
2023/09/08 05:19:20;;;;;;;15.48;9.43;;;;;;;;;;5023881;28;20029;-73
2023/09/08 05:21:46;;;;;;;22.25;9.93;;;;;;;;;;5025940;28;20082;-75
2023/09/08 05:24:11;;;;;;;14.48;9.30;;;;;;;;;;5019867;28;20039;-75
2023/09/08 05:26:38;;;;;;;14.30;10.18;;;;;;;;;;5046335;28;20037;-75
2023/09/08 05:29:04;;;;;;;19.95;10.95;;;;;;;;;;5049509;28;20025;-77
2023/09/08 05:31:30;;;;;;;22.30;11.13;;;;;;;;;;5045106;28;20037;-76
2023/09/08 05:33:56;;;;;;;18.60;9.73;;;;;;;;;;5045625;28;20033;-77
2023/09/08 05:36:21;;;;;;;17.00;10.48;;;;;;;;;;5029427;28;20055;-77
2023/09/08 05:38:47;;;;;;;15.70;10.10;;;;;;;;;;5047834;28;20025;-79
2023/09/08 05:41:14;;;;;;;19.88;12.23;;;;;;;;;;5024565;28;20028;-79
2023/09/08 05:43:42;;;;;;;16.05;10.63;;;;;;;;;;5036915;28;20055;-73
2023/09/08 05:46:09;;;;;;;17.95;10.98;;;;;;;;;;5050735;28;20032;-78
2023/09/08 05:48:35;;;;;;;26.40;12.43;;;;;;;;;;5046934;28;20082;-73
2023/09/08 05:51:02;;;;;;;22.73;11.68;;;;;;;;;;5050412;28;20036;-78
2023/09/08 05:53:28;;;;;;;26.13;13.98;;;;;;;;;;5031807;28;20024;-75
2023/09/08 05:55:56;;;;;;;26.23;12.55;;;;;;;;;;5036621;28;20035;-77
2023/09/08 05:58:24;;;;;;;23.77;11.73;;;;;;;;;;5033426;28;20053;-75
2023/09/08 06:00:49;;;;;;;25.05;11.20;;;;;;;;;;5046828;28;20484;-75
2023/09/08 06:03:15;;;;;;;23.70;12.45;;;;;;;;;;5043557;28;20107;-75
2023/09/08 06:05:40;;;;;;;21.20;11.60;;;;;;;;;;5024653;28;20025;-73
2023/09/08 06:08:06;;;;;;;17.65;10.65;;;;;;;;;;5027269;28;20033;-77
2023/09/08 06:10:31;;;;;;;19.02;10.27;;;;;;;;;;5024890;28;20039;-79
2023/09/08 06:12:57;;;;;;;18.35;10.73;;;;;;;;;;5044716;28;20035;-76
2023/09/08 06:15:22;;;;;;;20.48;10.52;;;;;;;;;;5023797;28;20041;-77
2023/09/08 06:17:48;;;;;;;21.98;10.60;;;;;;;;;;5023697;28;20030;-74
2023/09/08 06:20:13;;;;;;;25.63;11.43;;;;;;;;;;5023373;28;20037;-74
2023/09/08 06:22:39;;;;;;;17.65;10.82;;;;;;;;;;5042784;28;20032;-73
2023/09/08 06:25:07;;;;;;;13.90;9.80;;;;;;;;;;5048372;28;20136;-85
2023/09/08 06:27:33;;;;;;;18.10;10.48;;;;;;;;;;5029508;28;20037;-79
2023/09/08 06:29:58;;;;;;;18.08;9.75;;;;;;;;;;5026835;28;20100;-77
2023/09/08 06:32:24;;;;;;;20.33;10.82;;;;;;;;;;5022751;28;20029;-76
2023/09/08 06:34:49;;;;;;;14.57;10.10;;;;;;;;;;5022240;28;20144;-75
2023/09/08 06:37:15;;;;;;;23.40;10.77;;;;;;;;;;5042658;28;20100;-77
2023/09/08 06:39:40;;;;;;;15.40;9.57;;;;;;;;;;5042157;28;20120;-80
2023/09/08 06:42:06;;;;;;;18.70;9.88;;;;;;;;;;5027761;28;20017;-78
2023/09/08 06:44:31;;;;;;;20.98;18.02;;;;;;;;;;5019760;28;20071;-75
2023/09/08 06:46:57;;;;;;;20.95;10.68;;;;;;;;;;5040315;28;20067;-77
2023/09/08 06:49:22;;;;;;;16.85;10.50;;;;;;;;;;5035806;28;20037;-75
2023/09/08 06:51:48;;;;;;;18.90;10.35;;;;;;;;;;5038510;28;20029;-77
2023/09/08 06:54:14;;;;;;;21.38;12.15;;;;;;;;;;5042254;28;20046;-76
2023/09/08 06:56:40;;;;;;;15.95;10.65;;;;;;;;;;5042925;28;20639;-77
2023/09/08 06:59:05;;;;;;;16.27;9.52;;;;;;;;;;5025474;28;20021;-74
2023/09/08 07:01:31;;;;;;;15.43;9.27;;;;;;;;;;5027702;28;20357;-77
2023/09/08 07:03:58;;;;;;;25.45;13.82;;;;;;;;;;5048955;28;20082;-77
2023/09/08 07:06:23;;;;;;;22.35;10.80;;;;;;;;;;5040929;28;20114;-75
2023/09/08 07:08:51;;;;;;;17.15;9.32;;;;;;;;;;5052851;28;20539;-79
2023/09/08 07:11:17;;;;;;;17.83;9.90;;;;;;;;;;5037194;28;20053;-77
2023/09/08 07:13:44;;;;;;;17.13;10.25;;;;;;;;;;5035655;28;20059;-78
2023/09/08 07:16:10;;;;;;;17.60;9.95;;;;;;;;;;5051287;28;20063;-77
2023/09/08 07:18:38;;;;;;;16.85;8.52;;;;;;;;;;5023676;28;20071;-76
2023/09/08 07:21:04;;;;;;;20.77;10.65;;;;;;;;;;5044962;28;20040;-78
2023/09/08 07:23:32;;;;;;;26.77;9.68;;;;;;;;;;5029387;28;20047;-78
2023/09/08 07:25:58;;;;;;;15.00;8.63;;;;;;;;;;5026672;28;20351;-79
2023/09/08 07:28:27;;;;;;;16.40;8.85;;;;;;;;;;5025748;28;20090;-78
2023/09/08 07:30:53;;;;;;;16.77;8.90;;;;;;;;;;5047665;28;20035;-76
2023/09/08 07:33:19;;;;;;;15.40;8.40;;;;;;;;;;5044308;28;20459;-74
2023/09/08 07:35:48;;;;;;;15.85;8.32;;;;;;;;;;5023545;28;20067;-79
2023/09/08 07:38:14;;;;;;;13.35;8.02;;;;;;;;;;5032445;28;20167;-77
2023/09/08 07:40:41;;;;;;;15.65;7.90;;;;;;;;;;5029457;28;20492;-77
2023/09/08 07:43:07;;;;;;;17.65;9.20;;;;;;;;;;5010862;28;20033;-76
2023/09/08 07:45:33;;;;;;;12.70;8.15;;;;;;;;;;5030764;28;20048;-79
2023/09/08 07:47:58;;;;;;;13.13;7.72;;;;;;;;;;5045470;28;20564;-76
2023/09/08 07:50:27;;;;;;;13.63;8.95;;;;;;;;;;5022820;28;20203;-77
2023/09/08 07:52:54;;;;;;;17.58;8.90;;;;;;;;;;5052912;28;20040;-77
2023/09/08 07:55:26;;;;;;;13.15;7.50;;;;;;;;;;5047476;28;20033;-79
2023/09/08 07:57:53;;;;;;;15.18;7.78;;;;;;;;;;5031822;28;20044;-76
2023/09/08 08:00:19;;;;;;;10.05;7.15;;;;;;;;;;5017865;28;20041;-74
2023/09/08 08:02:51;;;;;;;10.30;6.95;;;;;;;;;;5039302;28;20125;-77
2023/09/08 08:05:17;;;;;;;;;;;;;;;;;;5017118;28;20091;-77
2023/09/08 08:07:44;;;;;;;8.82;7.05;;;;;;;;;;5028747;28;19913;-75
2023/09/08 08:10:13;;;;;;;10.35;7.32;;;;;;;;;;5045653;28;20059;-77
2023/09/08 08:12:42;;;;;;;10.90;6.78;;;;;;;;;;5030844;28;20036;-78
2023/09/08 08:15:12;;;;;;;9.13;6.07;;;;;;;;;;5030217;28;20470;-77
2023/09/08 08:17:41;;;;;;;11.38;6.32;;;;;;;;;;5034878;28;20032;-78
2023/09/08 08:20:10;;;;;;;11.75;7.32;;;;;;;;;;5031680;28;20025;-76
2023/09/08 08:22:37;;;;;;;13.70;6.97;;;;;;;;;;5036968;28;20021;-78
2023/09/08 08:25:07;;;;;;;12.93;7.97;;;;;;;;;;5021821;28;20359;-79
2023/09/08 08:27:33;;;;;;;19.38;7.70;;;;;;;;;;5031283;28;20061;-79
2023/09/08 08:30:00;;;;;;;17.90;6.88;;;;;;;;;;5027241;28;20106;-77
2023/09/08 08:32:31;;;;;;;11.48;6.53;;;;;;;;;;5034944;28;20128;-78
2023/09/08 08:35:00;;;;;;;14.15;6.88;;;;;;;;;;5030209;28;20039;-77
2023/09/08 08:37:25;;;;;;;15.30;6.75;;;;;;;;;;5042058;28;20082;-75
2023/09/08 08:39:54;;;;;;;10.75;7.68;;;;;;;;;;5036949;28;20025;-78
2023/09/08 08:42:22;;;;;;;16.48;7.07;;;;;;;;;;5036270;28;20037;-76
2023/09/08 08:44:49;;;;;;;13.60;7.10;;;;;;;;;;5029862;28;20040;-78
2023/09/08 08:47:24;;;;;;;11.63;6.55;;;;;;;;;;5028647;28;20029;-75
2023/09/08 08:49:58;;;;;;;19.50;6.55;;;;;;;;;;5030176;28;20201;-78
2023/09/08 08:52:33;;;;;;;19.42;8.00;;;;;;;;;;5049884;28;20041;-76
2023/09/08 08:55:01;;;;;;;26.55;12.32;;;;;;;;;;5025867;28;20028;-79
2023/09/08 08:57:28;;;;;;;12.75;6.60;;;;;;;;;;5020778;28;20056;-80
2023/09/08 08:59:59;;;;;;;11.10;6.90;;;;;;;;;;5014765;28;20132;-82
2023/09/08 09:02:28;;;;;;;12.63;7.15;;;;;;;;;;5042822;28;20025;-81
2023/09/08 09:04:55;;;;;;;11.45;6.70;;;;;;;;;;5039877;28;20045;-79
2023/09/08 09:07:33;;;;;;;9.88;6.50;;;;;;;;;;5036575;28;20056;-80
2023/09/08 09:10:01;;;;;;;8.65;5.60;;;;;;;;;;5053916;28;20131;-83
2023/09/08 09:12:29;;;;;;;8.88;6.05;;;;;;;;;;5041614;28;20025;-79
2023/09/08 09:14:55;;;;;;;8.95;5.78;;;;;;;;;;5056278;28;20031;-81
2023/09/08 09:17:23;;;;;;;8.50;6.18;;;;;;;;;;5036204;28;20029;-80
2023/09/08 09:19:49;;;;;;;9.02;5.55;;;;;;;;;;5036318;28;20029;-79
2023/09/08 09:22:23;;;;;;;12.63;7.05;;;;;;;;;;5030741;28;20056;-80
2023/09/08 09:24:49;;;;;;;9.82;5.57;;;;;;;;;;5038859;28;20088;-81
2023/09/08 09:27:15;;;;;;;10.32;6.28;;;;;;;;;;5028396;28;20360;-80
2023/09/08 09:29:46;;;;;;;13.38;6.00;;;;;;;;;;5041648;28;20096;-80
2023/09/08 09:32:12;;;;;;;11.07;6.25;;;;;;;;;;5038421;28;20082;-80
2023/09/08 09:34:49;;;;;;;9.55;6.30;;;;;;;;;;5025157;28;20492;-81
2023/09/08 09:37:15;;;;;;;10.27;6.32;;;;;;;;;;5023028;28;20040;-80
2023/09/08 09:39:41;;;;;;;6.65;4.65;;;;;;;;;;5026569;28;20029;-80
2023/09/08 09:42:06;;;;;;;7.32;5.05;;;;;;;;;;5038876;28;20021;-82
2023/09/08 09:44:32;;;;;;;10.27;5.25;;;;;;;;;;5053894;28;20069;-80
2023/09/08 09:47:02;;;;;;;7.60;5.20;;;;;;;;;;5043240;28;20450;-80
2023/09/08 09:49:31;;;;;;;7.82;5.28;;;;;;;;;;5049615;28;20036;-77
2023/09/08 09:51:59;;;;;;;10.23;5.50;;;;;;;;;;5059795;28;20099;-78
2023/09/08 09:54:24;;;;;;;15.60;11.18;;;;;;;;;;5027047;28;20455;-79
2023/09/08 09:56:51;;;;;;;7.35;5.78;;;;;;;;;;5036441;28;20113;-81
2023/09/08 09:59:17;;;;;;;12.35;5.47;;;;;;;;;;5055125;28;20030;-82
2023/09/08 10:01:45;;;;;;;8.55;5.40;;;;;;;;;;5018517;28;20040;-77
2023/09/08 10:04:11;;;;;;;6.82;5.22;;;;;;;;;;5023813;28;20024;-80
2023/09/08 10:06:40;;;;;;;9.10;4.85;;;;;;;;;;5027874;28;20112;-79
2023/09/08 10:09:13;;;;;;;11.50;5.10;;;;;;;;;;5000141;28;20044;-81
2023/09/08 10:11:44;;;;;;;14.05;5.55;;;;;;;;;;5018205;28;20074;-80
2023/09/08 10:14:11;;;;;;;9.52;5.28;;;;;;;;;;5021324;28;20080;-83
2023/09/08 10:16:42;;;;;;;10.18;5.68;;;;;;;;;;5041908;28;20895;-84
2023/09/08 10:19:10;;;;;;;9.48;5.10;;;;;;;;;;5025718;28;20037;-78
2023/09/08 10:21:59;;;;;;;21.88;6.05;;;;;;;;;;5022908;28;20081;-77
2023/09/08 10:24:28;;;;;;;9.82;5.65;;;;;;;;;;5048901;28;20026;-77
2023/09/08 10:27:18;;;;;;;7.25;5.10;;;;;;;;;;5017797;28;20666;-79
2023/09/08 10:29:49;;;;;;;9.82;5.32;;;;;;;;;;5024730;28;20080;-78
2023/09/08 10:32:18;;;;;;;11.57;6.00;;;;;;;;;;5016140;28;20025;-78
2023/09/08 10:34:45;;;;;;;8.88;5.97;;;;;;;;;;5039205;28;20032;-81
2023/09/08 10:37:25;;;;;;;9.13;5.13;;;;;;;;;;5019397;28;20044;-79
2023/09/08 10:39:51;;;;;;;12.33;5.93;;;;;;;;;;5021029;28;20047;-80
2023/09/08 10:42:17;;;;;;;9.23;5.35;;;;;;;;;;5027904;28;20334;-79
2023/09/08 10:44:49;;;;;;;8.18;5.32;;;;;;;;;;5027779;28;20061;-79
2023/09/08 10:47:19;;;;;;;14.07;6.70;;;;;;;;;;5033705;28;20075;-78
2023/09/08 10:49:50;;;;;;;10.63;6.00;;;;;;;;;;5025597;28;20028;-80
2023/09/08 10:52:16;;;;;;;11.60;5.97;;;;;;;;;;5034126;28;20291;-80
2023/09/08 10:54:45;;;;;;;10.25;6.10;;;;;;;;;;5040584;28;20041;-78
2023/09/08 10:57:16;;;;;;;7.55;4.97;;;;;;;;;;5023398;28;20083;-78
2023/09/08 10:59:45;;;;;;;;;;;;;;;;;;5023683;28;20061;-79
2023/09/08 11:02:37;;;;;;;9.30;5.43;;;;;;;;;;5018568;28;19959;-77
2023/09/08 11:05:07;;;;;;;7.90;4.55;;;;;;;;;;5026426;28;20037;-77
2023/09/08 11:07:33;;;;;;;7.28;4.90;;;;;;;;;;5009823;28;20025;-80
2023/09/08 11:10:02;;;;;;;11.25;4.80;;;;;;;;;;5009964;28;20470;-78
2023/09/08 11:12:28;;;;;;;7.25;4.75;;;;;;;;;;5031905;28;20067;-79
2023/09/08 11:14:55;;;;;;;5.25;3.97;;;;;;;;;;5032129;28;20045;-79
2023/09/08 11:17:30;;;;;;;8.27;4.70;;;;;;;;;;5002331;28;20435;-77
2023/09/08 11:19:56;;;;;;;6.68;3.90;;;;;;;;;;5023233;28;20049;-79
2023/09/08 11:22:26;;;;;;;10.90;4.20;;;;;;;;;;4993337;28;20150;-76
2023/09/08 11:25:06;;;;;;;8.93;4.68;;;;;;;;;;5012078;28;20033;-79
2023/09/08 11:27:32;;;;;;;7.80;4.33;;;;;;;;;;5012862;28;20400;-79
2023/09/08 11:29:58;;;;;;;11.70;3.90;;;;;;;;;;5032426;28;20263;-80
2023/09/08 11:32:25;;;;;;;5.90;3.92;;;;;;;;;;5028965;28;20369;-79
2023/09/08 11:34:50;;;;;;;8.30;4.03;;;;;;;;;;5008566;28;20029;-77
2023/09/08 11:37:18;;;;;;;6.65;4.38;;;;;;;;;;5001468;28;20367;-78
2023/09/08 11:39:47;;;;;;;5.00;3.33;;;;;;;;;;4985062;28;20482;-78
2023/09/08 11:42:15;;;;;;;6.25;3.67;;;;;;;;;;5011493;28;20041;-77
2023/09/08 11:44:41;;;;;;;6.95;4.38;;;;;;;;;;5027554;28;20048;-77
2023/09/08 11:47:09;;;;;;;13.77;5.50;;;;;;;;;;5019836;28;20037;-80
2023/09/08 11:49:42;;;;;;;8.23;4.35;;;;;;;;;;4993634;28;20041;-78
2023/09/08 11:52:07;;;;;;;8.85;4.97;;;;;;;;;;5023552;28;20048;-78
2023/09/08 11:54:41;;;;;;;11.80;4.20;;;;;;;;;;5027410;28;20485;-79
2023/09/08 11:57:11;;;;;;;15.43;4.70;;;;;;;;;;5005424;28;20497;-79
2023/09/08 11:59:39;;;;;;;8.80;3.80;;;;;;;;;;4996519;28;20037;-80
2023/09/08 12:02:05;;;;;;;6.32;3.80;;;;;;;;;;5003240;28;20313;-80
2023/09/08 12:04:36;;;;;;;4.15;3.17;;;;;;;;;;4996507;28;20029;-78
2023/09/08 12:07:01;;;;;;;;;;;;;;;;;;5009989;28;20128;-78
2023/09/08 12:09:27;;;;;;;6.68;3.22;;;;;;;;;;5024790;28;19967;-79
2023/09/08 12:11:53;;;;;;;4.43;3.08;;;;;;;;;;5001378;28;20484;-78
2023/09/08 12:14:18;;;;;;;4.38;3.30;;;;;;;;;;5015567;28;20128;-79
2023/09/08 12:16:44;;;;;;;6.05;3.20;;;;;;;;;;5019400;28;20060;-80
2023/09/08 12:19:39;;;;;;;4.13;3.13;;;;;;;;;;5006235;28;20086;-79
2023/09/08 12:22:17;;;;;;;3.65;3.28;;;;;;;;;;4996773;28;20385;-76
2023/09/08 12:24:50;;;;;;;4.70;3.60;;;;;;;;;;5029567;28;20041;-76
2023/09/08 12:27:18;;;;;;;4.57;3.17;;;;;;;;;;5006206;28;20040;-75
2023/09/08 12:29:58;;;;;;;6.45;3.35;;;;;;;;;;5007421;28;20034;-77
2023/09/08 12:32:26;;;;;;;8.35;3.63;;;;;;;;;;5029117;28;20033;-78
2023/09/08 12:34:52;;;;;;;6.45;3.60;;;;;;;;;;5025538;28;20067;-74
2023/09/08 12:37:24;;;;;;;5.55;3.78;;;;;;;;;;5001891;28;20029;-74
2023/09/08 12:39:50;;;;;;;7.97;3.88;;;;;;;;;;5024382;28;20448;-77
2023/09/08 12:42:18;;;;;;;7.32;3.42;;;;;;;;;;5006105;28;20045;-77
2023/09/08 12:44:43;;;;;;;7.00;3.65;;;;;;;;;;5015997;28;20359;-73
2023/09/08 12:47:13;;;;;;;7.05;3.72;;;;;;;;;;5015146;28;20036;-73
2023/09/08 12:49:39;;;;;;;6.25;3.70;;;;;;;;;;5036018;28;20036;-75
2023/09/08 12:52:05;;;;;;;7.50;3.50;;;;;;;;;;5015821;28;20104;-73
2023/09/08 12:54:31;;;;;;;9.25;3.85;;;;;;;;;;5011125;28;20121;-74
2023/09/08 12:56:57;;;;;;;5.50;3.20;;;;;;;;;;5033400;28;20041;-75
2023/09/08 12:59:23;;;;;;;5.53;3.55;;;;;;;;;;5051909;28;20031;-74
2023/09/08 13:01:50;;;;;;;4.72;3.70;;;;;;;;;;5031320;28;20028;-75
2023/09/08 13:04:16;;;;;;;7.03;4.53;;;;;;;;;;5029726;28;20366;-76
2023/09/08 13:06:41;;;;;;;6.05;3.42;;;;;;;;;;5023630;28;20033;-76
2023/09/08 13:09:10;;;;;;;9.02;4.18;;;;;;;;;;5030578;28;20029;-77
2023/09/08 13:11:37;;;;;;;7.60;3.55;;;;;;;;;;5021337;28;20083;-76
2023/09/08 13:14:03;;;;;;;4.68;3.53;;;;;;;;;;5020919;28;20041;-77
2023/09/08 13:16:28;;;;;;;5.22;3.28;;;;;;;;;;5040646;28;20064;-77
2023/09/08 13:18:55;;;;;;;5.05;3.83;;;;;;;;;;5041724;28;20017;-76
2023/09/08 13:21:20;;;;;;;4.72;3.67;;;;;;;;;;5029911;28;20059;-75
2023/09/08 13:23:46;;;;;;;5.20;3.78;;;;;;;;;;5028681;28;20037;-74
2023/09/08 13:26:12;;;;;;;7.63;3.47;;;;;;;;;;5024893;28;20028;-75
2023/09/08 13:28:38;;;;;;;6.40;3.17;;;;;;;;;;5032696;28;20029;-75
2023/09/08 13:31:03;;;;;;;8.27;4.03;;;;;;;;;;5025151;28;20025;-76
2023/09/08 13:33:29;;;;;;;10.80;3.72;;;;;;;;;;5047305;28;20068;-75
2023/09/08 13:35:55;;;;;;;7.60;4.55;;;;;;;;;;5030390;28;20031;-76
2023/09/08 13:38:25;;;;;;;4.75;3.05;;;;;;;;;;5023911;28;20338;-77
2023/09/08 13:40:51;;;;;;;6.07;3.38;;;;;;;;;;5030525;28;20675;-75
2023/09/08 13:43:17;;;;;;;4.93;3.38;;;;;;;;;;5048983;28;20028;-76
2023/09/08 13:45:43;;;;;;;7.53;3.40;;;;;;;;;;5041790;28;20505;-76
2023/09/08 13:48:09;;;;;;;7.18;3.63;;;;;;;;;;5034038;28;20062;-75
2023/09/08 13:50:38;;;;;;;6.40;3.83;;;;;;;;;;5051036;28;20082;-74
2023/09/08 13:53:05;;;;;;;6.53;3.77;;;;;;;;;;5027864;28;20029;-75
2023/09/08 13:55:30;;;;;;;4.72;3.28;;;;;;;;;;5046618;28;20191;-77
2023/09/08 13:57:56;;;;;;;6.47;3.63;;;;;;;;;;5017971;28;20099;-75
2023/09/08 14:00:22;;;;;;;4.13;3.38;;;;;;;;;;5020251;28;20025;-78
2023/09/08 14:02:48;;;;;;;5.40;4.00;;;;;;;;;;5024903;28;20017;-77
2023/09/08 14:05:14;;;;;;;8.68;5.05;;;;;;;;;;5032582;28;20047;-75
2023/09/08 14:07:41;;;;;;;4.72;3.67;;;;;;;;;;5045580;28;20029;-78
2023/09/08 14:10:07;;;;;;;4.07;2.97;;;;;;;;;;5035752;28;20029;-75
2023/09/08 14:12:34;;;;;;;5.97;4.32;;;;;;;;;;5056022;28;20024;-74
2023/09/08 14:15:00;;;;;;;7.05;3.88;;;;;;;;;;5036331;28;20047;-78
2023/09/08 14:17:27;;;;;;;4.40;3.33;;;;;;;;;;5025508;28;20300;-79
2023/09/08 14:19:53;;;;;;;8.73;3.60;;;;;;;;;;5027149;28;20090;-78
2023/09/08 14:22:19;;;;;;;6.55;3.13;;;;;;;;;;5034622;28;20021;-78
2023/09/08 14:24:45;;;;;;;4.40;2.97;;;;;;;;;;5051614;28;20059;-78
2023/09/08 14:27:11;;;;;;;3.92;3.30;;;;;;;;;;5016320;28;20044;-76
2023/09/08 14:29:36;;;;;;;5.15;3.47;;;;;;;;;;5015236;28;20382;-76
2023/09/08 14:32:03;;;;;;;5.72;3.08;;;;;;;;;;5025693;28;20124;-79
2023/09/08 14:34:29;;;;;;;5.05;3.20;;;;;;;;;;5018412;28;20035;-75